sensor_id;sensor_type;location;lat;lon;timestamp;pressure;altitude;pressure_sealevel;temperature;humidity
20889;BME280;10604;51.976;7.594;2024-03-07T00:02:08;101788.03;;;14.11;46.07
20889;BME280;10604;51.976;7.594;2024-03-07T00:04:33;101793.44;;;14.70;45.48
20889;BME280;10604;51.976;7.594;2024-03-07T00:07:01;101793.03;;;14.83;44.72
20889;BME280;10604;51.976;7.594;2024-03-07T00:09:28;101799.84;;;14.30;45.54
20889;BME280;10604;51.976;7.594;2024-03-07T00:11:53;101797.53;;;14.50;45.83
20889;BME280;10604;51.976;7.594;2024-03-07T00:14:19;101798.81;;;14.67;45.14
20889;BME280;10604;51.976;7.594;2024-03-07T00:16:45;101800.38;;;14.74;45.37
20889;BME280;10604;51.976;7.594;2024-03-07T00:19:11;101804.22;;;14.64;45.35
20889;BME280;10604;51.976;7.594;2024-03-07T00:21:36;101794.19;;;14.73;45.25
20889;BME280;10604;51.976;7.594;2024-03-07T00:24:01;101803.19;;;14.69;45.38
20889;BME280;10604;51.976;7.594;2024-03-07T00:26:30;101797.63;;;14.47;45.39
20889;BME280;10604;51.976;7.594;2024-03-07T00:28:55;101799.84;;;14.63;45.42
20889;BME280;10604;51.976;7.594;2024-03-07T00:31:20;101801.28;;;14.43;45.67
20889;BME280;10604;51.976;7.594;2024-03-07T00:33:46;101802.84;;;14.50;45.26
20889;BME280;10604;51.976;7.594;2024-03-07T00:36:11;101800.38;;;14.74;45.28
20889;BME280;10604;51.976;7.594;2024-03-07T00:38:37;101805.69;;;14.44;45.30
20889;BME280;10604;51.976;7.594;2024-03-07T00:41:02;101799.63;;;14.39;45.85
20889;BME280;10604;51.976;7.594;2024-03-07T00:43:27;101799.38;;;14.16;45.86
20889;BME280;10604;51.976;7.594;2024-03-07T00:45:53;101802.50;;;14.30;45.91
20889;BME280;10604;51.976;7.594;2024-03-07T00:48:18;101796.28;;;14.31;45.63
20889;BME280;10604;51.976;7.594;2024-03-07T00:50:44;101798.09;;;14.62;45.07
20889;BME280;10604;51.976;7.594;2024-03-07T00:53:09;101790.09;;;14.00;46.10
20889;BME280;10604;51.976;7.594;2024-03-07T00:55:35;101797.53;;;14.50;44.96
20889;BME280;10604;51.976;7.594;2024-03-07T00:58:00;101795.63;;;14.56;44.85
20889;BME280;10604;51.976;7.594;2024-03-07T01:00:25;101793.97;;;14.52;45.16
20889;BME280;10604;51.976;7.594;2024-03-07T01:02:50;101800.66;;;14.65;45.02
20889;BME280;10604;51.976;7.594;2024-03-07T01:05:18;101792.41;;;14.44;45.60
20889;BME280;10604;51.976;7.594;2024-03-07T01:07:43;101790.66;;;14.43;44.91
20889;BME280;10604;51.976;7.594;2024-03-07T01:10:11;101791.16;;;14.25;45.83
20889;BME280;10604;51.976;7.594;2024-03-07T01:12:36;101790.06;;;14.32;45.69
20889;BME280;10604;51.976;7.594;2024-03-07T01:15:01;101793.09;;;14.20;46.17
20889;BME280;10604;51.976;7.594;2024-03-07T01:17:29;101798.41;;;14.51;45.24
20889;BME280;10604;51.976;7.594;2024-03-07T01:19:54;101791.09;;;14.59;45.13
20889;BME280;10604;51.976;7.594;2024-03-07T01:22:19;101799.09;;;14.58;45.19
20889;BME280;10604;51.976;7.594;2024-03-07T01:24:46;101799.63;;;14.39;44.99
20889;BME280;10604;51.976;7.594;2024-03-07T01:27:11;101790.66;;;14.43;45.56
20889;BME280;10604;51.976;7.594;2024-03-07T01:29:36;101798.91;;;14.64;44.93
20889;BME280;10604;51.976;7.594;2024-03-07T01:32:02;101796.50;;;14.56;45.15
20889;BME280;10604;51.976;7.594;2024-03-07T01:34:28;101790.22;;;14.28;45.18
20889;BME280;10604;51.976;7.594;2024-03-07T01:36:53;101792.44;;;14.43;45.18
20889;BME280;10604;51.976;7.594;2024-03-07T01:39:18;101792.91;;;14.26;45.22
20889;BME280;10604;51.976;7.594;2024-03-07T01:41:44;101792.81;;;13.98;44.97
20889;BME280;10604;51.976;7.594;2024-03-07T01:44:09;101795.97;;;13.79;45.75
20889;BME280;10604;51.976;7.594;2024-03-07T01:46:34;101794.47;;;13.68;45.87
20889;BME280;10604;51.976;7.594;2024-03-07T01:49:00;101788.50;;;13.93;44.89
20889;BME280;10604;51.976;7.594;2024-03-07T01:51:25;101789.41;;;13.24;46.70
20889;BME280;10604;51.976;7.594;2024-03-07T01:53:51;101791.22;;;13.57;46.05
20889;BME280;10604;51.976;7.594;2024-03-07T01:56:16;101791.84;;;13.33;46.13
20889;BME280;10604;51.976;7.594;2024-03-07T01:58:42;101798.09;;;13.64;45.56
20889;BME280;10604;51.976;7.594;2024-03-07T02:01:07;101791.38;;;13.51;46.02
20889;BME280;10604;51.976;7.594;2024-03-07T02:03:33;101779.03;;;13.84;45.47
20889;BME280;10604;51.976;7.594;2024-03-07T02:05:58;101776.78;;;14.01;44.59
20889;BME280;10604;51.976;7.594;2024-03-07T02:08:23;101779.41;;;14.03;44.20
20889;BME280;10604;51.976;7.594;2024-03-07T02:10:49;101784.25;;;13.53;45.26
20889;BME280;10604;51.976;7.594;2024-03-07T02:13:14;101781.22;;;13.68;45.10
20889;BME280;10604;51.976;7.594;2024-03-07T02:15:39;101776.50;;;13.80;44.90
20889;BME280;10604;51.976;7.594;2024-03-07T02:18:07;101783.72;;;13.75;44.74
20889;BME280;10604;51.976;7.594;2024-03-07T02:20:34;101769.19;;;13.55;44.78
20889;BME280;10604;51.976;7.594;2024-03-07T02:22:59;101767.72;;;13.78;44.71
20889;BME280;10604;51.976;7.594;2024-03-07T02:25:24;101778.38;;;13.04;45.15
20889;BME280;10604;51.976;7.594;2024-03-07T02:27:49;101772.66;;;13.22;45.69
20889;BME280;10604;51.976;7.594;2024-03-07T02:30:15;101771.47;;;13.70;44.85
20889;BME280;10604;51.976;7.594;2024-03-07T02:32:40;101770.00;;;13.57;45.05
20889;BME280;10604;51.976;7.594;2024-03-07T02:35:05;101763.53;;;13.69;44.64
20889;BME280;10604;51.976;7.594;2024-03-07T02:37:31;101760.00;;;13.68;44.52
20889;BME280;10604;51.976;7.594;2024-03-07T02:39:56;101772.59;;;13.25;44.95
20889;BME280;10604;51.976;7.594;2024-03-07T02:42:22;101770.97;;;13.21;45.28
20889;BME280;10604;51.976;7.594;2024-03-07T02:44:47;101766.47;;;12.84;45.83
20889;BME280;10604;51.976;7.594;2024-03-07T02:47:12;101768.22;;;12.85;45.56
20889;BME280;10604;51.976;7.594;2024-03-07T02:49:37;101770.56;;;12.59;45.76
20889;BME280;10604;51.976;7.594;2024-03-07T02:52:03;101768.75;;;12.61;45.57
20889;BME280;10604;51.976;7.594;2024-03-07T02:54:32;101755.81;;;12.87;45.14
20889;BME280;10604;51.976;7.594;2024-03-07T02:56:57;101765.34;;;12.94;45.39
20889;BME280;10604;51.976;7.594;2024-03-07T02:59:22;101767.63;;;13.13;45.08
20889;BME280;10604;51.976;7.594;2024-03-07T03:01:49;101769.28;;;13.17;44.74
20889;BME280;10604;51.976;7.594;2024-03-07T03:04:14;101760.69;;;13.06;45.12
20889;BME280;10604;51.976;7.594;2024-03-07T03:06:39;101762.31;;;13.13;44.66
20889;BME280;10604;51.976;7.594;2024-03-07T03:09:04;101754.97;;;13.24;44.77
20889;BME280;10604;51.976;7.594;2024-03-07T03:11:30;101749.75;;;13.21;44.47
20889;BME280;10604;51.976;7.594;2024-03-07T03:13:55;101748.72;;;12.89;44.76
20889;BME280;10604;51.976;7.594;2024-03-07T03:16:20;101752.72;;;13.07;44.48
20889;BME280;10604;51.976;7.594;2024-03-07T03:18:46;101746.28;;;12.79;44.61
20889;BME280;10604;51.976;7.594;2024-03-07T03:21:13;101743.50;;;12.46;45.26
20889;BME280;10604;51.976;7.594;2024-03-07T03:23:40;101738.47;;;12.74;45.12
20889;BME280;10604;51.976;7.594;2024-03-07T03:26:05;101740.06;;;12.81;44.36
20889;BME280;10604;51.976;7.594;2024-03-07T03:28:31;101742.75;;;12.40;45.28
20889;BME280;10604;51.976;7.594;2024-03-07T03:30:56;101747.03;;;12.47;45.24
20889;BME280;10604;51.976;7.594;2024-03-07T03:33:22;101741.47;;;12.18;46.12
20889;BME280;10604;51.976;7.594;2024-03-07T03:35:47;101748.19;;;12.34;45.18
20889;BME280;10604;51.976;7.594;2024-03-07T03:38:13;101744.66;;;12.35;45.37
20889;BME280;10604;51.976;7.594;2024-03-07T03:40:38;101741.88;;;12.39;45.45
20889;BME280;10604;51.976;7.594;2024-03-07T03:43:03;101741.00;;;12.39;44.93
20889;BME280;10604;51.976;7.594;2024-03-07T03:45:29;101738.09;;;12.09;45.83
20889;BME280;10604;51.976;7.594;2024-03-07T03:47:54;101739.78;;;12.13;45.55
20889;BME280;10604;51.976;7.594;2024-03-07T03:50:19;101737.47;;;12.40;45.04
20889;BME280;10604;51.976;7.594;2024-03-07T03:52:45;101733.19;;;12.34;45.36
20889;BME280;10604;51.976;7.594;2024-03-07T03:55:10;101731.88;;;12.13;45.33
20889;BME280;10604;51.976;7.594;2024-03-07T03:57:37;101739.47;;;12.29;45.23
20889;BME280;10604;51.976;7.594;2024-03-07T04:00:03;101738.09;;;12.09;45.49
20889;BME280;10604;51.976;7.594;2024-03-07T04:02:34;101736.13;;;12.21;45.34
20889;BME280;10604;51.976;7.594;2024-03-07T04:05:00;101739.41;;;12.32;44.99
20889;BME280;10604;51.976;7.594;2024-03-07T04:07:25;101732.75;;;12.54;44.78
20889;BME280;10604;51.976;7.594;2024-03-07T04:09:50;101738.56;;;12.30;44.39
20889;BME280;10604;51.976;7.594;2024-03-07T04:12:15;101736.03;;;12.24;44.85
20889;BME280;10604;51.976;7.594;2024-03-07T04:14:41;101740.41;;;12.26;44.70
20889;BME280;10604;51.976;7.594;2024-03-07T04:17:06;101738.84;;;12.16;44.75
20889;BME280;10604;51.976;7.594;2024-03-07T04:19:33;101742.31;;;11.75;46.01
20889;BME280;10604;51.976;7.594;2024-03-07T04:21:58;101742.56;;;12.07;45.41
20889;BME280;10604;51.976;7.594;2024-03-07T04:24:24;101735.59;;;12.45;44.94
20889;BME280;10604;51.976;7.594;2024-03-07T04:26:49;101743.09;;;12.25;45.00
20889;BME280;10604;51.976;7.594;2024-03-07T04:29:15;101735.16;;;12.25;45.18
20889;BME280;10604;51.976;7.594;2024-03-07T04:31:41;101736.44;;;12.05;45.33
20889;BME280;10604;51.976;7.594;2024-03-07T04:34:06;101734.50;;;12.13;44.77
20889;BME280;10604;51.976;7.594;2024-03-07T04:36:31;101741.88;;;11.96;45.34
20889;BME280;10604;51.976;7.594;2024-03-07T04:38:57;101734.81;;;11.98;45.30
20889;BME280;10604;51.976;7.594;2024-03-07T04:41:22;101730.84;;;12.21;45.28
20889;BME280;10604;51.976;7.594;2024-03-07T04:43:48;101738.06;;;12.12;44.99
20889;BME280;10604;51.976;7.594;2024-03-07T04:46:13;101731.50;;;11.87;45.35
20889;BME280;10604;51.976;7.594;2024-03-07T04:48:38;101733.84;;;12.02;44.80
20889;BME280;10604;51.976;7.594;2024-03-07T04:51:04;101728.66;;;11.96;45.07
20889;BME280;10604;51.976;7.594;2024-03-07T04:53:29;101724.16;;;12.01;45.04
20889;BME280;10604;51.976;7.594;2024-03-07T04:55:54;101726.72;;;12.06;44.53
20889;BME280;10604;51.976;7.594;2024-03-07T04:58:21;101724.91;;;12.08;45.12
20889;BME280;10604;51.976;7.594;2024-03-07T05:00:46;101733.03;;;12.00;45.14
20889;BME280;10604;51.976;7.594;2024-03-07T05:03:11;101731.41;;;11.93;44.60
20889;BME280;10604;51.976;7.594;2024-03-07T05:05:36;101730.31;;;12.02;44.62
20889;BME280;10604;51.976;7.594;2024-03-07T05:08:02;101728.69;;;11.95;44.59
20889;BME280;10604;51.976;7.594;2024-03-07T05:10:29;101733.03;;;12.00;44.87
20889;BME280;10604;51.976;7.594;2024-03-07T05:12:55;101732.16;;;11.51;45.21
20889;BME280;10604;51.976;7.594;2024-03-07T05:15:20;101738.50;;;11.41;45.45
20889;BME280;10604;51.976;7.594;2024-03-07T05:17:46;101734.47;;;11.69;44.93
20889;BME280;10604;51.976;7.594;2024-03-07T05:20:11;101741.56;;;11.65;45.37
20889;BME280;10604;51.976;7.594;2024-03-07T05:22:39;101738.91;;;11.67;45.16
20889;BME280;10604;51.976;7.594;2024-03-07T05:25:15;101739.53;;;11.81;44.91
20889;BME280;10604;51.976;7.594;2024-03-07T05:27:41;101733.56;;;11.70;45.14
20889;BME280;10604;51.976;7.594;2024-03-07T05:30:06;101744.06;;;11.76;45.13
20889;BME280;10604;51.976;7.594;2024-03-07T05:32:34;101741.75;;;11.55;45.22
20889;BME280;10604;51.976;7.594;2024-03-07T05:34:59;101736.97;;;11.78;44.55
20889;BME280;10604;51.976;7.594;2024-03-07T05:37:25;101739.09;;;11.58;44.94
20889;BME280;10604;51.976;7.594;2024-03-07T05:39:50;101728.72;;;11.46;44.83
20889;BME280;10604;51.976;7.594;2024-03-07T05:42:16;101733.72;;;11.61;45.06
20889;BME280;10604;51.976;7.594;2024-03-07T05:44:42;101737.25;;;11.60;44.44
20889;BME280;10604;51.976;7.594;2024-03-07T05:47:07;101735.28;;;11.74;44.70
20889;BME280;10604;51.976;7.594;2024-03-07T05:49:33;101747.34;;;11.87;44.46
20889;BME280;10604;51.976;7.594;2024-03-07T05:51:59;101738.41;;;11.94;44.03
20889;BME280;10604;51.976;7.594;2024-03-07T05:54:24;101747.28;;;11.41;44.68
20889;BME280;10604;51.976;7.594;2024-03-07T05:56:49;101743.75;;;11.44;44.90
20889;BME280;10604;51.976;7.594;2024-03-07T05:59:15;101745.66;;;11.32;44.94
20889;BME280;10604;51.976;7.594;2024-03-07T06:01:42;101743.66;;;11.47;44.74
20889;BME280;10604;51.976;7.594;2024-03-07T06:04:07;101742.63;;;11.57;44.23
20889;BME280;10604;51.976;7.594;2024-03-07T06:06:36;101748.78;;;11.56;44.52
20889;BME280;10604;51.976;7.594;2024-03-07T06:09:02;101755.72;;;11.09;45.10
20889;BME280;10604;51.976;7.594;2024-03-07T06:11:36;101750.88;;;11.37;44.81
20889;BME280;10604;51.976;7.594;2024-03-07T06:14:01;101749.91;;;11.43;43.96
20889;BME280;10604;51.976;7.594;2024-03-07T06:16:31;101749.03;;;11.44;44.96
20889;BME280;10604;51.976;7.594;2024-03-07T06:18:59;101753.69;;;11.26;44.83
20889;BME280;10604;51.976;7.594;2024-03-07T06:21:24;101749.06;;;11.41;44.84
20889;BME280;10604;51.976;7.594;2024-03-07T06:23:49;101756.47;;;11.19;45.14
20889;BME280;10604;51.976;7.594;2024-03-07T06:26:20;101755.44;;;11.27;45.08
20889;BME280;10604;51.976;7.594;2024-03-07T06:29:01;101758.00;;;11.32;44.77
20889;BME280;10604;51.976;7.594;2024-03-07T06:31:27;101760.03;;;11.67;44.65
20889;BME280;10604;51.976;7.594;2024-03-07T06:33:52;101757.72;;;11.49;44.39
20889;BME280;10604;51.976;7.594;2024-03-07T06:36:17;101759.47;;;11.50;44.94
20889;BME280;10604;51.976;7.594;2024-03-07T06:38:42;101752.88;;;11.75;44.69
20889;BME280;10604;51.976;7.594;2024-03-07T06:41:07;101762.53;;;11.77;44.27
20889;BME280;10604;51.976;7.594;2024-03-07T06:43:35;101758.19;;;11.72;44.77
20889;BME280;10604;51.976;7.594;2024-03-07T06:46:00;101766.44;;;11.54;44.86
20889;BME280;10604;51.976;7.594;2024-03-07T06:48:25;101763.31;;;11.81;44.39
20889;BME280;10604;51.976;7.594;2024-03-07T06:50:51;101755.41;;;11.80;44.94
20889;BME280;10604;51.976;7.594;2024-03-07T06:53:17;101756.56;;;11.65;44.78
20889;BME280;10604;51.976;7.594;2024-03-07T06:55:42;101761.75;;;11.71;44.64
20889;BME280;10604;51.976;7.594;2024-03-07T06:58:08;101756.00;;;11.46;45.03
20889;BME280;10604;51.976;7.594;2024-03-07T07:00:33;101755.09;;;11.49;45.08
20889;BME280;10604;51.976;7.594;2024-03-07T07:03:01;101746.44;;;11.88;45.11
20889;BME280;10604;51.976;7.594;2024-03-07T07:05:29;101745.44;;;11.95;45.19
20889;BME280;10604;51.976;7.594;2024-03-07T07:07:55;101748.50;;;12.19;45.47
20889;BME280;10604;51.976;7.594;2024-03-07T07:10:20;101747.22;;;12.38;45.27
20889;BME280;10604;51.976;7.594;2024-03-07T07:12:48;101746.69;;;12.62;45.20
20889;BME280;10604;51.976;7.594;2024-03-07T07:15:14;101741.47;;;12.96;44.28
20889;BME280;10604;51.976;7.594;2024-03-07T07:17:43;101747.41;;;12.70;45.11
20889;BME280;10604;51.976;7.594;2024-03-07T07:20:12;101770.31;;;12.71;45.08
20889;BME280;10604;51.976;7.594;2024-03-07T07:22:39;101758.44;;;12.49;46.08
20889;BME280;10604;51.976;7.594;2024-03-07T07:25:05;101763.41;;;13.03;45.50
20889;BME280;10604;51.976;7.594;2024-03-07T07:27:33;101760.06;;;12.94;45.07
20889;BME280;10604;51.976;7.594;2024-03-07T07:29:59;101751.72;;;13.13;45.35
20889;BME280;10604;51.976;7.594;2024-03-07T07:32:24;101757.91;;;13.13;44.71
20889;BME280;10604;51.976;7.594;2024-03-07T07:34:49;101770.66;;;13.33;44.75
20889;BME280;10604;51.976;7.594;2024-03-07T07:37:15;101767.63;;;13.10;45.28
20889;BME280;10604;51.976;7.594;2024-03-07T07:39:40;101772.75;;;13.19;45.52
20889;BME280;10604;51.976;7.594;2024-03-07T07:42:05;101765.19;;;13.39;45.48
20889;BME280;10604;51.976;7.594;2024-03-07T07:44:30;101763.06;;;13.53;44.99
20889;BME280;10604;51.976;7.594;2024-03-07T07:46:56;101768.09;;;13.64;44.88
20889;BME280;10604;51.976;7.594;2024-03-07T07:49:21;101746.06;;;13.93;44.55
20889;BME280;10604;51.976;7.594;2024-03-07T07:51:46;101756.44;;;13.69;44.91
20889;BME280;10604;51.976;7.594;2024-03-07T07:54:13;101777.44;;;13.43;45.31
20889;BME280;10604;51.976;7.594;2024-03-07T07:56:38;101761.28;;;13.86;44.75
20889;BME280;10604;51.976;7.594;2024-03-07T07:59:03;101755.34;;;14.09;45.06
20889;BME280;10604;51.976;7.594;2024-03-07T08:01:29;101755.66;;;14.29;44.44
20889;BME280;10604;51.976;7.594;2024-03-07T08:03:54;101749.56;;;14.26;44.46
20889;BME280;10604;51.976;7.594;2024-03-07T08:06:20;101750.03;;;14.41;44.36
20889;BME280;10604;51.976;7.594;2024-03-07T08:08:45;101756.78;;;14.52;44.45
20889;BME280;10604;51.976;7.594;2024-03-07T08:11:11;101760.59;;;14.72;43.92
20889;BME280;10604;51.976;7.594;2024-03-07T08:13:39;101740.56;;;14.90;43.81
20889;BME280;10604;51.976;7.594;2024-03-07T08:16:05;101748.53;;;14.90;43.54
20889;BME280;10604;51.976;7.594;2024-03-07T08:18:30;101745.31;;;14.79;44.24
20889;BME280;10604;51.976;7.594;2024-03-07T08:20:55;101745.44;;;14.76;44.10
20889;BME280;10604;51.976;7.594;2024-03-07T08:23:21;101742.22;;;15.20;43.44
20889;BME280;10604;51.976;7.594;2024-03-07T08:25:50;101730.75;;;15.20;43.31
20889;BME280;10604;51.976;7.594;2024-03-07T08:28:15;101737.97;;;15.15;43.98
20889;BME280;10604;51.976;7.594;2024-03-07T08:30:40;101732.09;;;15.05;44.30
20889;BME280;10604;51.976;7.594;2024-03-07T08:33:06;101733.47;;;15.43;43.12
20889;BME280;10604;51.976;7.594;2024-03-07T08:35:32;101729.16;;;15.41;43.05
20889;BME280;10604;51.976;7.594;2024-03-07T08:37:58;101731.94;;;15.36;43.21
20889;BME280;10604;51.976;7.594;2024-03-07T08:40:27;101732.84;;;15.63;43.16
20889;BME280;10604;51.976;7.594;2024-03-07T08:42:56;101733.25;;;15.49;43.55
20889;BME280;10604;51.976;7.594;2024-03-07T08:45:21;101731.94;;;15.87;43.43
20889;BME280;10604;51.976;7.594;2024-03-07T08:47:47;101737.53;;;16.04;43.14
20889;BME280;10604;51.976;7.594;2024-03-07T08:50:13;101739.00;;;15.88;42.83
20889;BME280;10604;51.976;7.594;2024-03-07T08:52:38;101741.66;;;15.63;43.69
20889;BME280;10604;51.976;7.594;2024-03-07T08:55:05;101739.41;;;15.25;43.71
20889;BME280;10604;51.976;7.594;2024-03-07T08:57:30;101731.56;;;15.73;43.25
20889;BME280;10604;51.976;7.594;2024-03-07T08:59:55;101725.47;;;15.94;43.11
20889;BME280;10604;51.976;7.594;2024-03-07T09:02:21;101725.44;;;15.45;43.07
20889;BME280;10604;51.976;7.594;2024-03-07T09:04:46;101732.88;;;15.61;43.27
20889;BME280;10604;51.976;7.594;2024-03-07T09:07:11;101717.34;;;15.74;43.19
20889;BME280;10604;51.976;7.594;2024-03-07T09:09:38;101725.38;;;15.97;42.58
20889;BME280;10604;51.976;7.594;2024-03-07T09:12:03;101715.34;;;15.81;42.65
20889;BME280;10604;51.976;7.594;2024-03-07T09:14:28;101713.72;;;16.25;42.49
20889;BME280;10604;51.976;7.594;2024-03-07T09:16:54;101716.47;;;16.45;42.46
20889;BME280;10604;51.976;7.594;2024-03-07T09:19:19;101713.94;;;16.65;42.00
20889;BME280;10604;51.976;7.594;2024-03-07T09:21:48;101722.22;;;17.23;41.51
20889;BME280;10604;51.976;7.594;2024-03-07T09:24:15;101722.50;;;17.37;40.78
20889;BME280;10604;51.976;7.594;2024-03-07T09:26:40;101718.38;;;17.50;41.05
20889;BME280;10604;51.976;7.594;2024-03-07T09:29:06;101716.19;;;16.76;41.59
20889;BME280;10604;51.976;7.594;2024-03-07T09:31:34;101721.38;;;17.01;41.48
20889;BME280;10604;51.976;7.594;2024-03-07T09:33:59;101716.66;;;16.86;41.15
20889;BME280;10604;51.976;7.594;2024-03-07T09:36:25;101713.63;;;16.95;41.17
20889;BME280;10604;51.976;7.594;2024-03-07T09:38:50;101709.59;;;16.84;41.08
20889;BME280;10604;51.976;7.594;2024-03-07T09:41:15;101715.41;;;17.16;40.93
20889;BME280;10604;51.976;7.594;2024-03-07T09:43:42;101701.44;;;17.92;40.10
20889;BME280;10604;51.976;7.594;2024-03-07T09:46:09;101709.22;;;17.78;39.90
20889;BME280;10604;51.976;7.594;2024-03-07T09:48:35;101705.59;;;17.79;40.45
20889;BME280;10604;51.976;7.594;2024-03-07T09:51:00;101705.22;;;17.88;40.38
20889;BME280;10604;51.976;7.594;2024-03-07T09:53:27;101708.91;;;17.43;40.95
20889;BME280;10604;51.976;7.594;2024-03-07T09:55:53;101710.34;;;16.88;40.88
20889;BME280;10604;51.976;7.594;2024-03-07T09:58:19;101707.81;;;17.69;40.68
20889;BME280;10604;51.976;7.594;2024-03-07T10:00:45;101712.41;;;17.45;40.75
20889;BME280;10604;51.976;7.594;2024-03-07T10:03:12;101714.16;;;18.26;40.08
20889;BME280;10604;51.976;7.594;2024-03-07T10:05:38;101713.94;;;18.30;39.90
20889;BME280;10604;51.976;7.594;2024-03-07T10:08:04;101711.63;;;18.42;39.48
20889;BME280;10604;51.976;7.594;2024-03-07T10:10:29;101710.94;;;18.57;40.05
20889;BME280;10604;51.976;7.594;2024-03-07T10:12:55;101715.78;;;19.03;39.20
20889;BME280;10604;51.976;7.594;2024-03-07T10:15:26;101708.00;;;18.43;39.64
20889;BME280;10604;51.976;7.594;2024-03-07T10:17:52;101705.97;;;18.48;39.50
20889;BME280;10604;51.976;7.594;2024-03-07T10:20:18;101705.97;;;19.04;39.48
20889;BME280;10604;51.976;7.594;2024-03-07T10:22:45;101711.84;;;18.18;39.86
20889;BME280;10604;51.976;7.594;2024-03-07T10:25:11;101706.16;;;18.63;40.09
20889;BME280;10604;51.976;7.594;2024-03-07T10:27:36;101704.63;;;18.76;39.76
20889;BME280;10604;51.976;7.594;2024-03-07T10:30:03;101696.91;;;18.52;40.17
20889;BME280;10604;51.976;7.594;2024-03-07T10:32:29;101704.06;;;18.32;40.32
20889;BME280;10604;51.976;7.594;2024-03-07T10:34:55;101706.72;;;18.32;40.03
20889;BME280;10604;51.976;7.594;2024-03-07T10:37:20;101697.75;;;18.15;39.94
20889;BME280;10604;51.976;7.594;2024-03-07T10:39:50;101696.31;;;18.83;39.45
20889;BME280;10604;51.976;7.594;2024-03-07T10:42:16;101698.19;;;19.16;39.76
20889;BME280;10604;51.976;7.594;2024-03-07T10:44:48;101690.47;;;19.10;39.41
20889;BME280;10604;51.976;7.594;2024-03-07T10:47:15;101695.38;;;19.54;39.19
20889;BME280;10604;51.976;7.594;2024-03-07T10:49:43;101687.72;;;19.81;38.84
20889;BME280;10604;51.976;7.594;2024-03-07T10:52:13;101692.47;;;20.09;38.39
20889;BME280;10604;51.976;7.594;2024-03-07T10:54:50;101692.03;;;19.83;38.53
20889;BME280;10604;51.976;7.594;2024-03-07T10:57:41;101686.69;;;19.83;38.57
20889;BME280;10604;51.976;7.594;2024-03-07T11:00:08;101686.09;;;20.27;38.11
20889;BME280;10604;51.976;7.594;2024-03-07T11:02:55;101680.56;;;19.64;38.01
20889;BME280;10604;51.976;7.594;2024-03-07T11:05:21;101679.84;;;18.54;39.76
20889;BME280;10604;51.976;7.594;2024-03-07T11:07:50;101691.19;;;18.40;39.92
20889;BME280;10604;51.976;7.594;2024-03-07T11:10:16;101683.59;;;18.69;40.10
20889;BME280;10604;51.976;7.594;2024-03-07T11:12:43;101679.44;;;18.99;39.85
20889;BME280;10604;51.976;7.594;2024-03-07T11:15:09;101684.28;;;18.91;39.99
20889;BME280;10604;51.976;7.594;2024-03-07T11:17:41;101678.50;;;19.69;39.26
20889;BME280;10604;51.976;7.594;2024-03-07T11:20:19;101677.91;;;19.64;39.14
20889;BME280;10604;51.976;7.594;2024-03-07T11:22:46;101677.88;;;19.12;39.58
20889;BME280;10604;51.976;7.594;2024-03-07T11:25:11;101668.41;;;18.88;39.80
20889;BME280;10604;51.976;7.594;2024-03-07T11:27:37;101676.25;;;18.74;39.89
20889;BME280;10604;51.976;7.594;2024-03-07T11:30:06;101663.41;;;19.34;39.12
20889;BME280;10604;51.976;7.594;2024-03-07T11:32:34;101666.72;;;19.56;39.32
20889;BME280;10604;51.976;7.594;2024-03-07T11:34:59;101658.03;;;18.99;39.15
20889;BME280;10604;51.976;7.594;2024-03-07T11:37:41;101657.81;;;19.55;38.97
20889;BME280;10604;51.976;7.594;2024-03-07T11:40:13;101649.56;;;19.60;39.00
20889;BME280;10604;51.976;7.594;2024-03-07T11:42:46;101655.53;;;18.96;39.63
20889;BME280;10604;51.976;7.594;2024-03-07T11:45:12;101643.91;;;19.49;39.21
20889;BME280;10604;51.976;7.594;2024-03-07T11:47:49;101648.66;;;20.10;38.75
20889;BME280;10604;51.976;7.594;2024-03-07T11:50:15;101645.00;;;20.11;38.40
20889;BME280;10604;51.976;7.594;2024-03-07T11:52:44;101639.44;;;20.31;38.08
20889;BME280;10604;51.976;7.594;2024-03-07T11:55:11;101639.63;;;19.45;39.22
20889;BME280;10604;51.976;7.594;2024-03-07T11:57:37;101635.38;;;19.41;39.08
20889;BME280;10604;51.976;7.594;2024-03-07T12:00:03;101630.75;;;19.44;38.92
20889;BME280;10604;51.976;7.594;2024-03-07T12:02:38;101627.66;;;20.02;38.36
20889;BME280;10604;51.976;7.594;2024-03-07T12:05:04;101631.72;;;19.76;38.66
20889;BME280;10604;51.976;7.594;2024-03-07T12:07:30;101631.09;;;19.88;38.61
20889;BME280;10604;51.976;7.594;2024-03-07T12:09:55;101622.63;;;19.96;38.76
20889;BME280;10604;51.976;7.594;2024-03-07T12:12:21;101620.88;;;19.79;38.88
20889;BME280;10604;51.976;7.594;2024-03-07T12:14:47;101613.69;;;19.30;39.46
20889;BME280;10604;51.976;7.594;2024-03-07T12:17:13;101614.44;;;18.97;40.22
20889;BME280;10604;51.976;7.594;2024-03-07T12:19:39;101611.94;;;19.46;39.58
20889;BME280;10604;51.976;7.594;2024-03-07T12:22:07;101610.38;;;19.59;39.43
20889;BME280;10604;51.976;7.594;2024-03-07T12:24:37;101607.69;;;19.59;39.24
20889;BME280;10604;51.976;7.594;2024-03-07T12:27:12;101594.25;;;19.76;38.93
20889;BME280;10604;51.976;7.594;2024-03-07T12:29:41;101596.03;;;20.24;38.90
20889;BME280;10604;51.976;7.594;2024-03-07T12:32:08;101588.16;;;20.06;38.77
20889;BME280;10604;51.976;7.594;2024-03-07T12:34:34;101585.19;;;18.77;39.67
20889;BME280;10604;51.976;7.594;2024-03-07T12:37:02;101578.41;;;20.36;38.41
20889;BME280;10604;51.976;7.594;2024-03-07T12:39:28;101578.28;;;20.99;37.80
20889;BME280;10604;51.976;7.594;2024-03-07T12:42:00;101565.09;;;21.10;37.01
20889;BME280;10604;51.976;7.594;2024-03-07T12:44:26;101566.50;;;22.02;35.91
20889;BME280;10604;51.976;7.594;2024-03-07T12:46:53;101563.59;;;21.34;36.41